sensor_id;sensor_type;location;lat;lon;timestamp;pressure;altitude;pressure_sealevel;temperature;humidity
46347;BME280;32057;47.830;19.046;2023-05-17T00:01:03;99377.69;;;14.61;100.00
46347;BME280;32057;47.830;19.046;2023-05-17T00:03:28;99389.94;;;14.57;100.00
46347;BME280;32057;47.830;19.046;2023-05-17T00:05:53;99398.66;;;14.58;100.00
46347;BME280;32057;47.830;19.046;2023-05-17T00:08:19;99389.94;;;14.55;100.00
46347;BME280;32057;47.830;19.046;2023-05-17T00:10:44;99393.47;;;14.56;100.00
46347;BME280;32057;47.830;19.046;2023-05-17T00:13:10;99387.31;;;14.60;100.00
46347;BME280;32057;47.830;19.046;2023-05-17T00:15:35;99396.88;;;14.63;100.00
46347;BME280;32057;47.830;19.046;2023-05-17T00:18:00;99394.25;;;14.63;100.00
46347;BME280;32057;47.830;19.046;2023-05-17T00:20:26;99397.72;;;14.65;100.00
46347;BME280;32057;47.830;19.046;2023-05-17T00:22:51;99394.25;;;14.64;100.00
46347;BME280;32057;47.830;19.046;2023-05-17T00:25:17;99392.50;;;14.65;100.00
46347;BME280;32057;47.830;19.046;2023-05-17T00:27:42;99386.34;;;14.67;100.00
46347;BME280;32057;47.830;19.046;2023-05-17T00:30:07;99389.81;;;14.69;100.00
46347;BME280;32057;47.830;19.046;2023-05-17T00:32:33;99396.81;;;14.67;100.00
46347;BME280;32057;47.830;19.046;2023-05-17T00:34:58;99395.03;;;14.69;100.00
46347;BME280;32057;47.830;19.046;2023-05-17T00:37:24;99387.22;;;14.68;100.00
46347;BME280;32057;47.830;19.046;2023-05-17T00:39:49;99383.72;;;14.69;100.00
46347;BME280;32057;47.830;19.046;2023-05-17T00:42:14;99378.47;;;14.69;100.00
46347;BME280;32057;47.830;19.046;2023-05-17T00:44:40;99383.72;;;14.69;100.00
46347;BME280;32057;47.830;19.046;2023-05-17T00:47:05;99374.13;;;14.68;100.00
46347;BME280;32057;47.830;19.046;2023-05-17T00:49:31;99372.41;;;14.65;100.00
46347;BME280;32057;47.830;19.046;2023-05-17T00:51:57;99368.91;;;14.66;100.00
46347;BME280;32057;47.830;19.046;2023-05-17T00:54:24;99361.97;;;14.64;100.00
46347;BME280;32057;47.830;19.046;2023-05-17T00:56:51;99367.22;;;14.59;100.00
46347;BME280;32057;47.830;19.046;2023-05-17T00:59:17;99365.50;;;14.53;100.00
46347;BME280;32057;47.830;19.046;2023-05-17T01:01:44;99368.19;;;14.50;100.00
46347;BME280;32057;47.830;19.046;2023-05-17T01:04:09;99366.44;;;14.49;100.00
46347;BME280;32057;47.830;19.046;2023-05-17T01:06:35;99367.34;;;14.47;100.00
46347;BME280;32057;47.830;19.046;2023-05-17T01:09:02;99366.50;;;14.43;100.00
46347;BME280;32057;47.830;19.046;2023-05-17T01:14:23;99373.63;;;14.29;100.00
46347;BME280;32057;47.830;19.046;2023-05-17T01:17:05;99376.31;;;14.24;100.00
46347;BME280;32057;47.830;19.046;2023-05-17T01:22:16;99376.44;;;14.09;100.00
46347;BME280;32057;47.830;19.046;2023-05-17T01:25:03;99385.13;;;14.14;100.00
46347;BME280;32057;47.830;19.046;2023-05-17T01:27:32;99391.19;;;14.18;100.00
46347;BME280;32057;47.830;19.046;2023-05-17T01:30:01;99393.78;;;14.19;100.00
46347;BME280;32057;47.830;19.046;2023-05-17T01:32:27;99392.06;;;14.18;100.00
46347;BME280;32057;47.830;19.046;2023-05-17T01:34:54;99398.16;;;14.19;100.00
46347;BME280;32057;47.830;19.046;2023-05-17T01:37:19;99389.47;;;14.17;100.00
46347;BME280;32057;47.830;19.046;2023-05-17T01:39:45;99382.47;;;14.15;100.00
46347;BME280;32057;47.830;19.046;2023-05-17T01:42:23;99384.22;;;14.17;100.00
46347;BME280;32057;47.830;19.046;2023-05-17T01:47:35;99374.63;;;14.17;100.00
46347;BME280;32057;47.830;19.046;2023-05-17T01:50:05;99373.78;;;14.17;100.00
46347;BME280;32057;47.830;19.046;2023-05-17T01:52:39;99367.69;;;14.14;100.00
46347;BME280;32057;47.830;19.046;2023-05-17T01:58:00;99358.84;;;14.28;100.00
46347;BME280;32057;47.830;19.046;2023-05-17T02:00:28;99357.94;;;14.32;100.00
46347;BME280;32057;47.830;19.046;2023-05-17T02:02:54;99355.25;;;14.33;100.00
46347;BME280;32057;47.830;19.046;2023-05-17T02:05:19;99352.69;;;14.32;100.00
46347;BME280;32057;47.830;19.046;2023-05-17T02:07:45;99356.16;;;14.31;100.00
46347;BME280;32057;47.830;19.046;2023-05-17T02:10:10;99358.78;;;14.32;100.00
46347;BME280;32057;47.830;19.046;2023-05-17T02:12:36;99354.47;;;14.30;100.00
46347;BME280;32057;47.830;19.046;2023-05-17T02:15:01;99354.47;;;14.30;100.00
46347;BME280;32057;47.830;19.046;2023-05-17T02:17:27;99364.03;;;14.29;100.00
46347;BME280;32057;47.830;19.046;2023-05-17T02:19:52;99362.31;;;14.30;100.00
46347;BME280;32057;47.830;19.046;2023-05-17T02:22:17;99363.22;;;14.26;100.00
46347;BME280;32057;47.830;19.046;2023-05-17T02:24:43;99366.69;;;14.26;100.00
46347;BME280;32057;47.830;19.046;2023-05-17T02:27:08;99364.00;;;14.32;100.00
46347;BME280;32057;47.830;19.046;2023-05-17T02:29:33;99366.59;;;14.35;100.00
46347;BME280;32057;47.830;19.046;2023-05-17T02:31:59;99367.47;;;14.34;100.00
46347;BME280;32057;47.830;19.046;2023-05-17T02:34:24;99382.31;;;14.34;100.00
46347;BME280;32057;47.830;19.046;2023-05-17T02:36:49;99380.63;;;14.30;100.00
46347;BME280;32057;47.830;19.046;2023-05-17T02:39:16;99385.88;;;14.27;100.00
46347;BME280;32057;47.830;19.046;2023-05-17T02:41:41;99391.16;;;14.21;100.00
46347;BME280;32057;47.830;19.046;2023-05-17T02:44:07;99391.16;;;14.21;100.00
46347;BME280;32057;47.830;19.046;2023-05-17T02:46:32;99391.19;;;14.18;100.00
46347;BME280;32057;47.830;19.046;2023-05-17T02:48:58;99396.41;;;14.18;100.00
46347;BME280;32057;47.830;19.046;2023-05-17T02:51:23;99400.78;;;14.15;100.00
46347;BME280;32057;47.830;19.046;2023-05-17T02:53:49;99407.78;;;14.18;100.00
46347;BME280;32057;47.830;19.046;2023-05-17T02:56:14;99413.88;;;14.19;100.00
46347;BME280;32057;47.830;19.046;2023-05-17T02:58:40;99411.25;;;14.19;100.00
46347;BME280;32057;47.830;19.046;2023-05-17T03:01:06;99425.19;;;14.18;100.00
46347;BME280;32057;47.830;19.046;2023-05-17T03:03:31;99424.34;;;14.19;100.00
46347;BME280;32057;47.830;19.046;2023-05-17T03:06:00;99420.81;;;14.20;100.00
46347;BME280;32057;47.830;19.046;2023-05-17T03:08:26;99413.84;;;14.20;100.00
46347;BME280;32057;47.830;19.046;2023-05-17T03:10:51;99424.28;;;14.22;100.00
46347;BME280;32057;47.830;19.046;2023-05-17T03:13:17;99429.50;;;14.25;100.00
46347;BME280;32057;47.830;19.046;2023-05-17T03:15:42;99418.19;;;14.24;100.00
46347;BME280;32057;47.830;19.046;2023-05-17T03:18:08;99428.66;;;14.23;100.00
46347;BME280;32057;47.830;19.046;2023-05-17T03:20:33;99429.50;;;14.23;100.00
46347;BME280;32057;47.830;19.046;2023-05-17T03:22:58;99429.53;;;14.22;100.00
46347;BME280;32057;47.830;19.046;2023-05-17T03:25:24;99432.13;;;14.22;100.00
46347;BME280;32057;47.830;19.046;2023-05-17T03:27:49;99433.00;;;14.24;100.00
46347;BME280;32057;47.830;19.046;2023-05-17T03:30:15;99434.72;;;14.26;100.00
46347;BME280;32057;47.830;19.046;2023-05-17T03:32:40;99440.81;;;14.27;100.00
46347;BME280;32057;47.830;19.046;2023-05-17T03:35:06;99441.66;;;14.32;100.00
46347;BME280;32057;47.830;19.046;2023-05-17T03:37:32;99442.53;;;14.32;100.00
46347;BME280;32057;47.830;19.046;2023-05-17T03:39:58;99436.44;;;14.32;100.00
46347;BME280;32057;47.830;19.046;2023-05-17T03:42:23;99436.44;;;14.32;100.00
46347;BME280;32057;47.830;19.046;2023-05-17T03:44:49;99448.66;;;14.30;100.00
46347;BME280;32057;47.830;19.046;2023-05-17T03:47:14;99446.91;;;14.32;100.00
46347;BME280;32057;47.830;19.046;2023-05-17T03:49:40;99444.25;;;14.35;100.00
46347;BME280;32057;47.830;19.046;2023-05-17T03:52:05;99436.38;;;14.38;100.00
46347;BME280;32057;47.830;19.046;2023-05-17T03:54:31;99436.31;;;14.41;100.00
46347;BME280;32057;47.830;19.046;2023-05-17T03:56:56;99442.41;;;14.42;100.00
46347;BME280;32057;47.830;19.046;2023-05-17T03:59:22;99443.25;;;14.45;100.00
46347;BME280;32057;47.830;19.046;2023-05-17T04:01:47;99444.13;;;14.47;100.00
46347;BME280;32057;47.830;19.046;2023-05-17T04:04:12;99440.56;;;14.54;100.00
46347;BME280;32057;47.830;19.046;2023-05-17T04:06:38;99442.28;;;14.60;100.00
46347;BME280;32057;47.830;19.046;2023-05-17T04:09:05;99450.94;;;14.65;100.00
46347;BME280;32057;47.830;19.046;2023-05-17T04:11:31;99457.94;;;14.66;100.00
46347;BME280;32057;47.830;19.046;2023-05-17T04:13:57;99461.47;;;14.64;100.00
46347;BME280;32057;47.830;19.046;2023-05-17T04:16:22;99460.56;;;14.65;100.00
46347;BME280;32057;47.830;19.046;2023-05-17T04:18:48;99467.50;;;14.67;100.00
46347;BME280;32057;47.830;19.046;2023-05-17T04:21:17;99474.50;;;14.70;100.00
46347;BME280;32057;47.830;19.046;2023-05-17T04:23:43;99474.50;;;14.70;100.00
46347;BME280;32057;47.830;19.046;2023-05-17T04:26:08;99472.75;;;14.69;100.00
46347;BME280;32057;47.830;19.046;2023-05-17T04:28:34;99473.66;;;14.63;100.00
46347;BME280;32057;47.830;19.046;2023-05-17T04:30:59;99478.03;;;14.63;100.00
46347;BME280;32057;47.830;19.046;2023-05-17T04:33:24;99481.53;;;14.62;100.00
46347;BME280;32057;47.830;19.046;2023-05-17T04:35:53;99486.81;;;14.60;100.00
46347;BME280;32057;47.830;19.046;2023-05-17T04:38:19;99483.34;;;14.57;100.00
46347;BME280;32057;47.830;19.046;2023-05-17T04:40:44;99492.03;;;14.59;100.00
46347;BME280;32057;47.830;19.046;2023-05-17T04:43:09;99495.53;;;14.61;100.00
46347;BME280;32057;47.830;19.046;2023-05-17T04:45:35;99494.59;;;14.63;100.00
46347;BME280;32057;47.830;19.046;2023-05-17T04:48:02;99494.59;;;14.63;100.00
46347;BME280;32057;47.830;19.046;2023-05-17T04:50:27;99490.22;;;14.65;100.00
46347;BME280;32057;47.830;19.046;2023-05-17T04:52:53;99487.59;;;14.67;100.00
46347;BME280;32057;47.830;19.046;2023-05-17T04:55:18;99480.66;;;14.66;100.00
46347;BME280;32057;47.830;19.046;2023-05-17T04:57:43;99484.13;;;14.68;100.00
46347;BME280;32057;47.830;19.046;2023-05-17T05:00:09;99487.53;;;14.71;100.00
46347;BME280;32057;47.830;19.046;2023-05-17T05:02:35;99489.25;;;14.76;100.00
46347;BME280;32057;47.830;19.046;2023-05-17T05:05:01;99504.94;;;14.79;100.00
46347;BME280;32057;47.830;19.046;2023-05-17T05:07:29;99512.75;;;14.83;100.00
46347;BME280;32057;47.830;19.046;2023-05-17T05:09:55;99519.69;;;14.87;100.00
46347;BME280;32057;47.830;19.046;2023-05-17T05:12:20;99537.16;;;14.88;100.00
46347;BME280;32057;47.830;19.046;2023-05-17T05:14:45;99545.88;;;14.90;100.00
46347;BME280;32057;47.830;19.046;2023-05-17T05:17:11;99540.63;;;14.90;100.00
46347;BME280;32057;47.830;19.046;2023-05-17T05:19:36;99538.03;;;14.87;100.00
46347;BME280;32057;47.830;19.046;2023-05-17T05:22:02;99538.91;;;14.86;100.00
46347;BME280;32057;47.830;19.046;2023-05-17T05:24:27;99540.69;;;14.84;100.00
46347;BME280;32057;47.830;19.046;2023-05-17T05:26:52;99542.44;;;14.82;100.00
46347;BME280;32057;47.830;19.046;2023-05-17T05:29:18;99529.34;;;14.84;100.00
46347;BME280;32057;47.830;19.046;2023-05-17T05:31:43;99535.44;;;14.84;100.00
46347;BME280;32057;47.830;19.046;2023-05-17T05:34:09;99533.69;;;14.86;100.00
46347;BME280;32057;47.830;19.046;2023-05-17T05:36:35;99544.09;;;14.92;100.00
46347;BME280;32057;47.830;19.046;2023-05-17T05:39:00;99539.69;;;14.96;100.00
46347;BME280;32057;47.830;19.046;2023-05-17T05:41:26;99546.66;;;14.96;100.00
46347;BME280;32057;47.830;19.046;2023-05-17T05:43:51;99547.56;;;14.94;100.00
46347;BME280;32057;47.830;19.046;2023-05-17T05:46:17;99540.56;;;14.93;100.00
46347;BME280;32057;47.830;19.046;2023-05-17T05:48:42;99550.19;;;14.96;100.00
46347;BME280;32057;47.830;19.046;2023-05-17T05:51:09;99544.91;;;14.98;100.00
46347;BME280;32057;47.830;19.046;2023-05-17T05:53:35;99541.41;;;15.02;100.00
46347;BME280;32057;47.830;19.046;2023-05-17T05:56:01;99553.59;;;15.04;100.00
46347;BME280;32057;47.830;19.046;2023-05-17T05:58:28;99553.53;;;15.07;100.00
46347;BME280;32057;47.830;19.046;2023-05-17T06:00:53;99564.88;;;15.09;100.00
46347;BME280;32057;47.830;19.046;2023-05-17T06:03:19;99568.38;;;15.10;100.00
46347;BME280;32057;47.830;19.046;2023-05-17T06:05:44;99563.09;;;15.11;100.00
46347;BME280;32057;47.830;19.046;2023-05-17T06:08:10;99561.38;;;15.12;100.00
46347;BME280;32057;47.830;19.046;2023-05-17T06:10:36;99569.22;;;15.12;100.00
46347;BME280;32057;47.830;19.046;2023-05-17T06:13:01;99577.03;;;15.15;100.00
46347;BME280;32057;47.830;19.046;2023-05-17T06:15:27;99579.66;;;15.17;100.00
46347;BME280;32057;47.830;19.046;2023-05-17T06:17:52;99573.50;;;15.18;100.00
46347;BME280;32057;47.830;19.046;2023-05-17T06:20:18;99568.28;;;15.18;100.00
46347;BME280;32057;47.830;19.046;2023-05-17T06:22:43;99578.75;;;15.18;100.00
46347;BME280;32057;47.830;19.046;2023-05-17T06:25:09;99581.34;;;15.21;100.00
46347;BME280;32057;47.830;19.046;2023-05-17T06:27:38;99576.97;;;15.21;100.00
46347;BME280;32057;47.830;19.046;2023-05-17T06:30:04;99581.34;;;15.21;100.00
46347;BME280;32057;47.830;19.046;2023-05-17T06:32:29;99588.34;;;15.22;100.00
46347;BME280;32057;47.830;19.046;2023-05-17T06:34:55;99591.00;;;15.17;100.00
46347;BME280;32057;47.830;19.046;2023-05-17T06:37:21;99596.22;;;15.20;100.00
46347;BME280;32057;47.830;19.046;2023-05-17T06:39:47;99592.75;;;15.18;100.00
46347;BME280;32057;47.830;19.046;2023-05-17T06:42:12;99597.09;;;15.18;100.00
46347;BME280;32057;47.830;19.046;2023-05-17T06:44:37;99606.72;;;15.17;100.00
46347;BME280;32057;47.830;19.046;2023-05-17T06:47:03;99598.84;;;15.19;100.00
46347;BME280;32057;47.830;19.046;2023-05-17T06:49:28;99599.72;;;15.19;100.00
46347;BME280;32057;47.830;19.046;2023-05-17T06:51:54;99598.00;;;15.15;100.00
46347;BME280;32057;47.830;19.046;2023-05-17T06:54:21;99592.88;;;15.06;100.00
46347;BME280;32057;47.830;19.046;2023-05-17T06:56:47;99588.50;;;15.03;100.00
46347;BME280;32057;47.830;19.046;2023-05-17T06:59:12;99603.31;;;15.07;100.00
46347;BME280;32057;47.830;19.046;2023-05-17T07:01:37;99601.53;;;15.12;100.00
46347;BME280;32057;47.830;19.046;2023-05-17T07:04:04;99598.06;;;15.10;100.00
46347;BME280;32057;47.830;19.046;2023-05-17T07:06:29;99605.88;;;15.15;100.00
46347;BME280;32057;47.830;19.046;2023-05-17T07:08:55;99604.94;;;15.22;100.00
46347;BME280;32057;47.830;19.046;2023-05-17T07:11:20;99611.88;;;15.28;100.00
46347;BME280;32057;47.830;19.046;2023-05-17T07:13:46;99612.66;;;15.34;100.00
46347;BME280;32057;47.830;19.046;2023-05-17T07:16:11;99602.13;;;15.38;100.00
46347;BME280;32057;47.830;19.046;2023-05-17T07:18:37;99606.44;;;15.45;100.00
46347;BME280;32057;47.830;19.046;2023-05-17T07:21:02;99596.78;;;15.48;100.00
46347;BME280;32057;47.830;19.046;2023-05-17T07:23:28;99601.09;;;15.54;100.00
46347;BME280;32057;47.830;19.046;2023-05-17T07:25:53;99595.78;;;15.60;100.00
46347;BME280;32057;47.830;19.046;2023-05-17T07:28:18;99601.88;;;15.64;100.00
46347;BME280;32057;47.830;19.046;2023-05-17T07:30:44;99614.91;;;15.68;100.00
46347;BME280;32057;47.830;19.046;2023-05-17T07:33:09;99610.50;;;15.70;100.00
46347;BME280;32057;47.830;19.046;2023-05-17T07:35:35;99614.00;;;15.69;100.00
46347;BME280;32057;47.830;19.046;2023-05-17T07:38:00;99620.13;;;15.73;100.00
46347;BME280;32057;47.830;19.046;2023-05-17T07:40:26;99620.09;;;15.78;100.00
46347;BME280;32057;47.830;19.046;2023-05-17T07:42:51;99624.44;;;15.79;100.00
46347;BME280;32057;47.830;19.046;2023-05-17T07:45:18;99627.09;;;15.76;100.00
46347;BME280;32057;47.830;19.046;2023-05-17T07:47:43;99628.88;;;15.72;100.00
46347;BME280;32057;47.830;19.046;2023-05-17T07:50:09;99625.53;;;15.56;100.00
46347;BME280;32057;47.830;19.046;2023-05-17T07:52:34;99623.84;;;15.52;100.00
46347;BME280;32057;47.830;19.046;2023-05-17T07:55:00;99623.00;;;15.48;100.00
46347;BME280;32057;47.830;19.046;2023-05-17T07:57:25;99620.53;;;15.34;100.00
46347;BME280;32057;47.830;19.046;2023-05-17T07:59:51;99626.63;;;15.35;100.00
46347;BME280;32057;47.830;19.046;2023-05-17T08:02:16;99637.09;;;15.37;100.00
46347;BME280;32057;47.830;19.046;2023-05-17T08:04:42;99638.09;;;15.23;100.00
46347;BME280;32057;47.830;19.046;2023-05-17T08:07:08;99641.66;;;15.19;100.00
46347;BME280;32057;47.830;19.046;2023-05-17T08:09:33;99646.03;;;15.17;100.00
46347;BME280;32057;47.830;19.046;2023-05-17T08:11:59;99651.28;;;15.16;100.00
46347;BME280;32057;47.830;19.046;2023-05-17T08:14:25;99650.47;;;15.12;100.00
46347;BME280;32057;47.830;19.046;2023-05-17T08:16:51;99654.81;;;15.11;100.00
46347;BME280;32057;47.830;19.046;2023-05-17T08:19:16;99661.00;;;15.06;100.00
46347;BME280;32057;47.830;19.046;2023-05-17T08:21:43;99655.78;;;15.01;100.00
46347;BME280;32057;47.830;19.046;2023-05-17T08:24:10;99648.84;;;14.96;100.00
46347;BME280;32057;47.830;19.046;2023-05-17T08:26:36;99654.16;;;14.88;100.00
46347;BME280;32057;47.830;19.046;2023-05-17T08:29:02;99659.41;;;14.85;100.00
46347;BME280;32057;47.830;19.046;2023-05-17T08:31:29;99668.13;;;14.88;100.00
46347;BME280;32057;47.830;19.046;2023-05-17T08:33:55;99669.00;;;14.89;100.00
46347;BME280;32057;47.830;19.046;2023-05-17T08:36:21;99669.00;;;14.87;100.00
46347;BME280;32057;47.830;19.046;2023-05-17T08:38:46;99675.09;;;14.89;100.00
46347;BME280;32057;47.830;19.046;2023-05-17T08:41:12;99673.38;;;14.90;100.00
46347;BME280;32057;47.830;19.046;2023-05-17T08:43:38;99669.84;;;14.92;100.00
46347;BME280;32057;47.830;19.046;2023-05-17T08:46:04;99672.47;;;14.92;100.00
46347;BME280;32057;47.830;19.046;2023-05-17T08:48:29;99685.50;;;14.96;100.00
46347;BME280;32057;47.830;19.046;2023-05-17T08:50:55;99686.41;;;14.93;100.00
46347;BME280;32057;47.830;19.046;2023-05-17T08:53:22;99692.47;;;15.00;100.00
46347;BME280;32057;47.830;19.046;2023-05-17T08:55:49;99687.22;;;15.01;100.00
46347;BME280;32057;47.830;19.046;2023-05-17T08:58:20;99694.22;;;15.01;100.00
46347;BME280;32057;47.830;19.046;2023-05-17T09:00:49;99690.72;;;15.02;100.00
46347;BME280;32057;47.830;19.046;2023-05-17T09:03:17;99702.94;;;15.06;100.00
46347;BME280;32057;47.830;19.046;2023-05-17T09:05:46;99703.75;;;15.11;100.00
46347;BME280;32057;47.830;19.046;2023-05-17T09:08:11;99704.66;;;15.07;100.00
46347;BME280;32057;47.830;19.046;2023-05-17T09:10:41;99702.94;;;15.06;100.00
46347;BME280;32057;47.830;19.046;2023-05-17T09:13:09;99694.28;;;14.94;100.00
46347;BME280;32057;47.830;19.046;2023-05-17T09:15:35;99683.03;;;14.80;100.00
46347;BME280;32057;47.830;19.046;2023-05-17T09:18:02;99687.41;;;14.75;100.00
46347;BME280;32057;47.830;19.046;2023-05-17T09:20:28;99685.63;;;14.83;100.00
46347;BME280;32057;47.830;19.046;2023-05-17T09:23:01;99687.31;;;14.87;100.00
46347;BME280;32057;47.830;19.046;2023-05-17T09:25:28;99689.09;;;14.88;100.00
46347;BME280;32057;47.830;19.046;2023-05-17T09:27:54;99689.06;;;14.90;100.00
46347;BME280;32057;47.830;19.046;2023-05-17T09:30:26;99687.31;;;14.87;100.00
46347;BME280;32057;47.830;19.046;2023-05-17T09:32:51;99690.78;;;14.94;100.00
46347;BME280;32057;47.830;19.046;2023-05-17T09:35:18;99687.22;;;15.03;100.00
46347;BME280;32057;47.830;19.046;2023-05-17T09:37:43;99682.72;;;15.17;100.00
46347;BME280;32057;47.830;19.046;2023-05-17T09:40:22;99684.38;;;15.29;100.00
46347;BME280;32057;47.830;19.046;2023-05-17T09:42:48;99686.91;;;15.37;100.00
46347;BME280;32057;47.830;19.046;2023-05-17T09:45:20;99682.53;;;15.40;100.00
46347;BME280;32057;47.830;19.046;2023-05-17T09:47:47;99677.16;;;15.51;100.00
46347;BME280;32057;47.830;19.046;2023-05-17T09:50:17;99671.78;;;15.65;100.00
46347;BME280;32057;47.830;19.046;2023-05-17T09:52:43;99681.31;;;15.73;100.00
46347;BME280;32057;47.830;19.046;2023-05-17T09:55:09;99686.56;;;15.73;100.00
46347;BME280;32057;47.830;19.046;2023-05-17T09:57:39;99696.16;;;15.78;100.00
46347;BME280;32057;47.830;19.046;2023-05-17T10:00:07;99692.53;;;15.88;100.00
46347;BME280;32057;47.830;19.046;2023-05-17T10:02:37;99699.66;;;15.78;100.00
46347;BME280;32057;47.830;19.046;2023-05-17T10:05:04;99698.78;;;15.71;100.00
46347;BME280;32057;47.830;19.046;2023-05-17T10:07:30;99698.00;;;15.65;100.00
46347;BME280;32057;47.830;19.046;2023-05-17T10:09:56;99691.03;;;15.64;100.00
46347;BME280;32057;47.830;19.046;2023-05-17T10:12:24;99690.97;;;15.68;100.00
46347;BME280;32057;47.830;19.046;2023-05-17T10:14:52;99695.31;;;15.69;100.00
46347;BME280;32057;47.830;19.046;2023-05-17T10:17:20;99695.44;;;15.60;100.00
46347;BME280;32057;47.830;19.046;2023-05-17T10:19:46;99698.09;;;15.56;100.00
46347;BME280;32057;47.830;19.046;2023-05-17T10:22:12;99702.47;;;15.55;100.00
46347;BME280;32057;47.830;19.046;2023-05-17T10:24:39;99701.47;;;15.65;100.00
46347;BME280;32057;47.830;19.046;2023-05-17T10:27:05;99707.56;;;15.70;100.00
46347;BME280;32057;47.830;19.046;2023-05-17T10:29:35;99706.66;;;15.71;100.00
46347;BME280;32057;47.830;19.046;2023-05-17T10:32:04;99710.06;;;15.86;100.00
46347;BME280;32057;47.830;19.046;2023-05-17T10:34:33;99712.53;;;15.98;100.00
46347;BME280;32057;47.830;19.046;2023-05-17T10:37:00;99717.84;;;15.92;100.00
46347;BME280;32057;47.830;19.046;2023-05-17T10:39:25;99713.38;;;16.00;100.00
46347;BME280;32057;47.830;19.046;2023-05-17T10:41:53;99724.75;;;15.99;100.00
46347;BME280;32057;47.830;19.046;2023-05-17T10:44:20;99722.28;;;15.87;100.00
46347;BME280;32057;47.830;19.046;2023-05-17T10:46:53;99730.25;;;15.71;100.00
46347;BME280;32057;47.830;19.046;2023-05-17T10:49:23;99743.47;;;15.64;100.00
46347;BME280;32057;47.830;19.046;2023-05-17T10:51:49;99746.19;;;15.54;100.00
46347;BME280;32057;47.830;19.046;2023-05-17T10:54:15;99745.44;;;15.42;100.00
46347;BME280;32057;47.830;19.046;2023-05-17T10:56:52;99752.41;;;15.41;100.00
46347;BME280;32057;47.830;19.046;2023-05-17T10:59:25;99755.94;;;15.37;100.00
46347;BME280;32057;47.830;19.046;2023-05-17T11:04:38;99756.00;;;15.32;100.00
46347;BME280;32057;47.830;19.046;2023-05-17T11:12:41;99754.34;;;15.19;100.00
46347;BME280;32057;47.830;19.046;2023-05-17T11:15:15;99756.06;;;15.23;100.00
46347;BME280;32057;47.830;19.046;2023-05-17T11:22:58;99754.22;;;15.31;100.00
46347;BME280;32057;47.830;19.046;2023-05-17T11:25:35;99762.03;;;15.41;100.00
46347;BME280;32057;47.830;19.046;2023-05-17T11:28:17;99755.09;;;15.37;100.00
46347;BME280;32057;47.830;19.046;2023-05-17T11:30:42;99753.25;;;15.48;100.00
46347;BME280;32057;47.830;19.046;2023-05-17T11:33:15;99759.44;;;15.38;100.00
46347;BME280;32057;47.830;19.046;2023-05-17T11:35:41;99758.56;;;15.40;100.00
46347;BME280;32057;47.830;19.046;2023-05-17T11:38:13;99760.25;;;15.46;100.00
46347;BME280;32057;47.830;19.046;2023-05-17T11:40:40;99765.56;;;15.40;100.00
46347;BME280;32057;47.830;19.046;2023-05-17T11:43:13;99764.66;;;15.41;100.00
46347;BME280;32057;47.830;19.046;2023-05-17T11:45:44;99776.84;;;15.48;100.00
46347;BME280;32057;47.830;19.046;2023-05-17T11:48:12;99787.34;;;15.45;100.00
46347;BME280;32057;47.830;19.046;2023-05-17T11:50:38;99789.16;;;15.38;100.00
46347;BME280;32057;47.830;19.046;2023-05-17T11:53:05;99785.75;;;15.25;100.00
46347;BME280;32057;47.830;19.046;2023-05-17T11:55:34;99789.31;;;15.18;100.00
46347;BME280;32057;47.830;19.046;2023-05-17T11:58:02;99788.44;;;15.16;100.00
46347;BME280;32057;47.830;19.046;2023-05-17T12:00:28;99796.28;;;15.18;100.00
46347;BME280;32057;47.830;19.046;2023-05-17T12:02:54;99790.16;;;15.20;100.00
46347;BME280;32057;47.830;19.046;2023-05-17T12:05:19;99795.38;;;15.23;100.00
46347;BME280;32057;47.830;19.046;2023-05-17T12:07:45;99795.38;;;15.23;100.00
46347;BME280;32057;47.830;19.046;2023-05-17T12:10:13;99788.41;;;15.22;100.00
46347;BME280;32057;47.830;19.046;2023-05-17T12:12:39;99793.53;;;15.34;100.00
46347;BME280;32057;47.830;19.046;2023-05-17T12:15:06;99795.25;;;15.39;100.00
46347;BME280;32057;47.830;19.046;2023-05-17T12:17:36;99797.88;;;15.42;100.00
46347;BME280;32057;47.830;19.046;2023-05-17T12:20:09;99799.66;;;15.35;100.00
46347;BME280;32057;47.830;19.046;2023-05-17T12:22:50;99797.13;;;15.24;100.00
46347;BME280;32057;47.830;19.046;2023-05-17T12:25:23;99801.50;;;15.24;100.00
46347;BME280;32057;47.830;19.046;2023-05-17T12:28:11;99796.19;;;15.31;100.00
46347;BME280;32057;47.830;19.046;2023-05-17T12:30:37;99793.50;;;15.41;100.00
46347;BME280;32057;47.830;19.046;2023-05-17T12:33:03;99796.13;;;15.42;100.00
46347;BME280;32057;47.830;19.046;2023-05-17T12:35:28;99791.66;;;15.52;100.00
46347;BME280;32057;47.830;19.046;2023-05-17T12:37:54;99802.97;;;15.59;100.00
46347;BME280;32057;47.830;19.046;2023-05-17T12:40:20;99795.94;;;15.62;100.00
46347;BME280;32057;47.830;19.046;2023-05-17T12:42:46;99793.25;;;15.75;100.00
46347;BME280;32057;47.830;19.046;2023-05-17T12:45:11;99796.66;;;15.83;100.00
46347;BME280;32057;47.830;19.046;2023-05-17T12:47:37;99792.19;;;15.91;100.00
46347;BME280;32057;47.830;19.046;2023-05-17T12:50:02;99799.06;;;16.03;100.00
46347;BME280;32057;47.830;19.046;2023-05-17T12:52:33;99803.34;;;16.11;100.00
46347;BME280;32057;47.830;19.046;2023-05-17T12:55:04;99798.94;;;16.15;100.00
46347;BME280;32057;47.830;19.046;2023-05-17T12:57:30;99798.94;;;16.15;100.00
46347;BME280;32057;47.830;19.046;2023-05-17T12:59:55;99798.09;;;16.11;100.00
46347;BME280;32057;47.830;19.046;2023-05-17T13:02:21;99798.94;;;16.15;100.00